Norway House Airport
CYNE : now visible

Airfield :











YOU CAN JOIN US ON...

 
LOGIN :

Register | Disclaimer

   EN    FR    IT 

 









Legend :    VFR   Marginal VFR   IFR   Intensive IFR   Very Intensive IFR
Visi :
Ceiling :
>= 8 km
>= 3000ft
5 to 8 km
1000 to 3000 ft
1500m to 5 km
500 to 1000 ft
800 to 1500m
200 to 500 ft
< 800m
< 200 ft
Symbols :   Thunderstorms  Fog  Heavy snow  Heavy precipitations  Wind > 20 kt






- Airport Elevation : 734 ft
- IATA code : YNE


CYNE - Norway House

CURRENT METAR :
  • 011800Z AUTO 32006KT 300V360 9SM OVC014 M02/M04 A3005 RMK SLP190

EXPIRED METARs :
  • 011700Z AUTO 36005KT 310V020 9SM OVC012 M03/M06 A3005 RMK SLP193
  • 011600Z AUTO 34007KT 9SM OVC015 M05/M07 A3005 RMK SLP192

TAF TAF CYNE
Valid from the 01 at 13:00 until the 02 at 01:00 UTC


011238Z 0113/0201 22008KT 2SM -SN BR OVC007
TEMPO 0113/0116 P6SM NSW OVC010
BECMG 0114/0116 35008KT
FM011600 35008KT P6SM OVC010
TEMPO 0116/0120 3SM -SN OVC008
FM012300 36008KT P6SM SCT020 BKN150 RMK FCST BASED ON AUTO OBS. NXT FCST BY 011900Z



MET'MAP, your aeronautical weather chart ! - Copyright ORBIFLY December 2007 - Disclaimer

ORBIFLY MET'MAP TEAM :

Programming & Development : Alexandra Zaïnal
Concept & original design : Baudouin d'Aumeries
Assistance for programming : Marc-Olivier Méhu
Technical & hardware support : Manuel Goepfert

Contact : metmap@orbifly.com




SOURCES & CREDITS :

   NOAA       Earth
Advisory